Latest Weather Observations for Melbourne Airport

IDV60801

Issued at 5:52 pm EST Tuesday 20 August 2019 (issued every 10 minutes, with the page automatically refreshed every 10 minutes)

About weather observations | Map of weather stations | Latest weather observations for VIC | Other Formats
Station Details ID: 086282 Name: MELBOURNE AIRPORT Lat: -37.67 Lon: 144.83 Height: 113.4 m
Data from the previous 72 hours. | See also: Recent months at Melbourne Airport
Date/Time
EST
Temp
°C
App
Temp
°C
Dew
Point
°C
Rel
Hum
%
Delta-T
°C
Wind Press
QNH
hPa
Press
MSL
hPa
Rain since
9am
mm
Dir  Spd
km/h
Gust
km/h
Spd
kts
Gust
kts
20/05:30pm 13.9 6.9 5.9 58 3.8 W 32 43 17 23 1020.9 1021.0 0.0
20/05:18pm 14.4 8.1 5.6 55 4.2 W 28 52 15 28 1020.9 1021.0 0.0
20/05:00pm 14.4 8.6 6.1 57 4.0 W 26 35 14 19 1020.9 1021.0 0.0
20/04:30pm 14.4 7.4 6.1 57 4.0 W 32 39 17 21 1021.0 1021.1 0.0
20/04:00pm 14.8 7.5 5.3 53 4.5 W 33 46 18 25 1021.1 1021.2 0.0
20/03:30pm 15.0 8.0 6.1 55 4.3 W 32 39 17 21 1021.1 1021.2 0.0
20/03:00pm 15.2 8.3 6.6 56 4.2 W 32 37 17 20 1021.1 1021.2 0.0
20/02:30pm 15.6 8.7 6.6 55 4.4 WSW 32 44 17 24 1021.2 1021.3 0.0
20/02:00pm 15.7 9.9 6.2 53 4.6 W 26 37 14 20 1021.4 1021.5 0.0
20/01:30pm 14.8 11.5 6.6 58 4.0 NW 13 19 7 10 1021.7 1021.9 0.0
20/01:00pm 15.2 10.5 6.1 54 4.4 W 20 30 11 16 1021.9 1022.1 0.0
20/12:30pm 14.8 8.6 6.3 56 4.1 W 28 33 15 18 1022.4 1022.6 0.0
20/12:00pm 13.9 6.8 5.7 57 3.9 W 32 41 17 22 1023.0 1023.2 0.0
20/11:30am 13.6 6.0 5.8 59 3.7 W 35 50 19 27 1023.5 1023.7 0.0
20/11:00am 12.0 5.2 5.3 63 3.1 W 30 43 16 23 1023.9 1024.1 0.0
20/10:30am 11.7 4.6 5.7 66 2.8 W 32 43 17 23 1024.1 1024.3 0.0
20/10:00am 11.6 4.8 5.1 64 3.0 W 30 41 16 22 1024.1 1024.3 0.0
20/09:30am 11.0 5.3 4.8 65 2.8 WNW 24 35 13 19 1024.2 1024.4 0.0
20/09:00am 10.7 4.7 5.2 69 2.5 W 26 33 14 18 1024.3 1024.5 0.2
20/08:42am 10.3 3.2 5.5 72 2.2 W 32 50 17 27 1024.2 1024.4 0.2
20/08:30am 10.2 5.0 5.4 72 2.2 W 22 33 12 18 1024.1 1024.3 0.2
20/08:00am 9.9 3.9 5.3 73 2.1 W 26 32 14 17 1023.8 1024.0 0.2
20/07:30am 9.4 3.3 4.9 73 2.0 W 26 37 14 20 1023.9 1024.1 0.2
20/07:00am 8.8 3.4 4.5 74 1.9 W 22 33 12 18 1023.6 1023.8 0.2
20/06:30am 8.5 4.0 4.2 74 1.9 WNW 17 28 9 15 1023.6 1023.8 0.2
20/06:00am 9.1 2.8 3.8 69 2.3 WNW 26 33 14 18 1023.3 1023.5 0.2
20/05:30am 9.1 2.9 4.3 72 2.1 WNW 26 37 14 20 1023.6 1023.8 0.2
20/05:00am 9.3 2.7 4.1 70 2.3 WNW 28 37 15 20 1023.3 1023.5 0.2
20/04:30am 8.7 2.2 4.6 75 1.8 W 28 37 15 20 1023.5 1023.7 0.2
20/04:00am 8.7 2.9 4.4 74 1.9 W 24 33 13 18 1023.6 1023.8 0.2
20/03:30am 8.2 2.8 4.3 76 1.7 W 22 28 12 15 1023.6 1023.8 0.2
20/03:00am 8.3 3.3 4.7 78 1.6 WNW 20 26 11 14 1023.9 1024.1 0.2
20/02:30am 7.7 2.9 4.5 80 1.4 WNW 19 26 10 14 1024.1 1024.3 0.2
20/02:00am 8.2 2.5 5.1 81 1.4 WNW 24 33 13 18 1024.3 1024.5 0.2
20/01:30am 8.7 2.6 4.9 77 1.7 WNW 26 33 14 18 1024.6 1024.8 0.2
20/01:00am 8.5 3.6 4.9 78 1.6 W 20 26 11 14 1024.8 1025.0 0.2
20/12:30am 8.4 3.5 5.3 81 1.4 W 20 30 11 16 1024.9 1025.1 0.2
20/12:00am 8.5 2.7 4.4 75 1.8 W 24 28 13 15 1024.8 1025.0 0.2
 
Date/Time
EST
Temp
°C
App
Temp
°C
Dew
Point
°C
Rel
Hum
%
Delta-T
°C
Wind Press
QNH
hPa
Press
MSL
hPa
Rain since
9am
mm
Dir  Spd
km/h
Gust
km/h
Spd
kts
Gust
kts
19/11:30pm 7.6 1.7 4.1 78 1.5 WNW 24 30 13 16 1024.7 1024.9 0.2
19/11:00pm 6.9 1.4 3.9 81 1.3 WNW 22 28 12 15 1024.7 1024.9 0.2
19/10:30pm 7.2 1.7 3.9 79 1.4 WNW 22 30 12 16 1024.7 1024.9 0.2
19/10:00pm 7.2 2.3 3.9 79 1.4 WNW 19 22 10 12 1024.6 1024.8 0.2
19/09:30pm 6.9 2.0 3.9 81 1.3 WNW 19 30 10 16 1024.6 1024.8 0.2
19/09:00pm 7.1 2.5 3.8 79 1.4 WNW 17 20 9 11 1024.3 1024.5 0.2
19/08:30pm 6.8 2.2 3.5 79 1.4 WNW 17 26 9 14 1024.4 1024.6 0.2
19/08:00pm 7.4 2.7 3.4 76 1.7 WNW 17 22 9 12 1024.0 1024.2 0.2
19/07:30pm 7.1 2.1 3.6 78 1.5 WNW 19 28 10 15 1023.6 1023.8 0.2
19/07:00pm 7.2 2.6 3.9 79 1.4 WNW 17 26 9 14 1023.5 1023.7 0.2
19/06:30pm 7.5 2.4 4.0 78 1.5 W 20 30 11 16 1022.9 1023.1 0.2
19/06:00pm 8.2 4.3 5.3 82 1.3 W 15 20 8 11 1022.4 1022.6 0.2
19/05:30pm 8.1 3.8 5.4 83 1.2 W 17 26 9 14 1022.1 1022.3 0.2
19/05:00pm 8.3 1.5 5.2 81 1.4 WSW 30 50 16 27 1021.9 1022.1 0.2
19/04:54pm 8.6 2.1 4.8 77 1.7 WSW 28 50 15 27 1022.0 1022.2 0.2
19/04:30pm 10.3 3.6 3.7 63 2.9 WSW 28 37 15 20 1021.4 1021.5 0.0
19/04:00pm 9.6 2.8 4.9 72 2.1 W 30 44 16 24 1021.1 1021.2 0.0
19/03:50pm 9.2 1.9 4.7 73 2.0 WSW 32 50 17 27 1021.2 1021.3 0.0
19/03:30pm 10.7 3.2 3.4 60 3.2 WSW 32 44 17 24 1021.0 1021.1 0.0
19/03:00pm 10.2 3.5 5.4 72 2.2 WSW 30 43 16 23 1020.7 1020.8 0.0
19/02:46pm 9.0 2.1 4.5 73 2.0 WSW 30 54 16 29 1020.6 1020.7 0.0
19/02:30pm 11.1 3.2 2.3 54 3.8 WSW 33 46 18 25 1020.3 1020.4 0.0
19/02:00pm 11.5 3.6 2.5 54 3.9 W 33 48 18 26 1020.1 1020.2 0.0
19/01:30pm 10.8 2.8 1.5 52 3.9 SW 33 46 18 25 1020.0 1020.1 0.0
19/01:00pm 10.3 1.5 1.5 54 3.7 WSW 37 50 20 27 1019.8 1019.9 0.0
19/12:30pm 10.0 2.1 1.0 53 3.7 WSW 32 46 17 25 1019.9 1020.0 0.0
19/12:11pm 10.1 2.7 1.8 56 3.5 WSW 30 48 16 26 1019.9 1020.0 0.0
19/12:00pm 9.8 1.4 1.7 57 3.4 WSW 35 46 19 25 1019.9 1020.0 0.0
19/11:30am 9.4 1.0 1.4 57 3.3 WSW 35 50 19 27 1020.0 1020.1 0.0
19/11:00am 9.3 0.9 1.3 57 3.3 WSW 35 48 19 26 1019.8 1019.9 0.0
19/10:30am 8.8 0.4 1.5 60 3.0 WSW 35 48 19 26 1019.5 1019.6 0.0
19/10:03am 8.2 0.4 1.4 62 2.8 WSW 32 50 17 27 1019.0 1019.1 0.0
19/10:00am 8.2 0.2 1.4 62 2.8 WSW 33 50 18 27 1018.9 1019.0 0.0
19/09:30am 7.6 -0.3 1.2 64 2.6 W 32 43 17 23 1018.3 1018.4 0.0
19/09:00am 7.1 -0.7 1.4 67 2.3 W 32 43 17 23 1017.8 1018.0 3.6
19/08:30am 6.3 -1.2 1.3 70 2.0 W 30 39 16 21 1017.3 1017.5 3.6
19/08:00am 5.4 -1.0 0.8 72 1.8 WSW 24 33 13 18 1017.0 1017.2 3.6
19/07:30am 4.6 -2.2 1.0 77 1.4 WSW 26 33 14 18 1016.4 1016.6 3.6
19/07:00am 4.6 -2.2 0.7 76 1.5 W 26 33 14 18 1015.8 1016.0 3.6
19/06:30am 4.2 -1.8 0.8 78 1.3 W 22 30 12 16 1014.9 1015.1 3.6
19/06:00am 4.6 -1.8 1.0 77 1.4 W 24 30 13 16 1014.4 1014.5 3.6
19/05:30am 4.6 -0.8 1.3 79 1.3 W 19 26 10 14 1014.1 1014.2 3.6
19/05:00am 5.2 -0.3 1.7 78 1.4 WSW 20 30 11 16 1014.0 1014.1 3.6
19/04:30am 4.9 -1.1 1.1 76 1.5 W 22 32 12 17 1013.5 1013.6 3.2
19/04:00am 5.3 -1.4 1.3 75 1.6 W 26 32 14 17 1013.2 1013.3 3.2
19/03:30am 5.3 -1.4 1.3 75 1.6 W 26 33 14 18 1012.8 1012.9 3.2
19/03:00am 5.6 -1.5 1.1 73 1.8 W 28 39 15 21 1012.3 1012.4 3.2
19/02:30am 6.2 -1.6 2.0 74 1.7 WSW 32 41 17 22 1012.2 1012.3 3.2
19/02:00am 6.2 -0.7 2.6 78 1.5 W 28 37 15 20 1012.2 1012.3 3.2
19/01:30am 6.5 -0.5 1.8 72 1.9 WSW 28 37 15 20 1012.0 1012.1 3.2
19/01:00am 6.6 1.5 3.3 79 1.4 W 19 26 10 14 1011.7 1011.8 3.2
19/12:30am 7.2 1.0 2.4 71 2.0 W 24 33 13 18 1011.7 1011.8 3.2
19/12:00am 6.9 1.1 2.3 72 1.9 W 22 32 12 17 1011.3 1011.4 3.2
 
Date/Time
EST
Temp
°C
App
Temp
°C
Dew
Point
°C
Rel
Hum
%
Delta-T
°C
Wind Press
QNH
hPa
Press
MSL
hPa
Rain since
9am
mm
Dir  Spd
km/h
Gust
km/h
Spd
kts
Gust
kts
18/11:30pm 6.5 0.3 2.4 75 1.7 W 24 32 13 17 1010.9 1011.0 3.2
18/11:00pm 6.7 -1.2 2.1 72 1.9 WSW 33 44 18 24 1010.4 1010.5 3.2
18/10:30pm 6.9 -1.0 2.3 72 1.9 WSW 33 46 18 25 1009.9 1010.0 3.2
18/10:00pm 6.8 -0.9 2.5 74 1.8 W 32 44 17 24 1009.6 1009.7 3.2
18/09:30pm 7.0 -2.0 2.4 72 1.9 WSW 39 50 21 27 1008.9 1009.1 3.2
18/09:00pm 7.1 -2.2 3.1 76 1.7 WSW 41 54 22 29 1008.3 1008.5 3.2
18/08:30pm 7.7 -2.1 2.5 69 2.2 WSW 43 61 23 33 1007.7 1007.9 3.2
18/08:00pm 8.9 1.3 2.8 65 2.6 W 32 52 17 28 1006.8 1006.9 3.2
18/07:56pm 9.1 1.9 3.1 66 2.6 W 30 52 16 28 1006.6 1006.7 3.2
18/07:30pm 9.2 4.5 3.2 66 2.6 NW 17 30 9 16 1006.1 1006.2 3.2
18/07:00pm 9.3 2.9 3.3 66 2.6 NW 26 37 14 20 1005.2 1005.3 3.2
18/06:30pm 9.6 4.2 4.5 70 2.3 NW 22 33 12 18 1005.1 1005.2 3.2
18/06:00pm 9.7 4.4 4.9 72 2.2 NNW 22 32 12 17 1004.7 1004.8 3.2
18/05:30pm 10.2 4.2 5.2 71 2.3 NNW 26 41 14 22 1004.7 1004.8 3.2
18/05:00pm 9.5 3.7 6.3 80 1.5 N 26 32 14 17 1004.7 1004.8 3.2
18/04:30pm 9.4 3.6 6.4 81 1.4 N 26 35 14 19 1004.9 1005.0 3.2
18/04:00pm 9.4 5.0 6.4 81 1.4 NNW 19 26 10 14 1005.3 1005.4 3.0
18/03:30pm 10.0 6.2 7.5 84 1.2 NW 17 22 9 12 1005.6 1005.7 1.8
18/03:00pm 10.5 5.3 7.2 80 1.6 NW 24 37 13 20 1005.0 1005.1 0.4
18/02:30pm 12.8 5.7 5.4 60 3.5 WNW 32 41 17 22 1004.9 1005.0 0.0
18/02:00pm 14.6 9.2 4.3 50 4.8 NNW 22 30 12 16 1004.7 1004.8 0.0
18/01:30pm 14.9 8.2 3.9 47 5.1 NNW 28 35 15 19 1005.0 1005.1 0.0
18/01:00pm 15.4 7.9 3.2 44 5.6 WNW 32 43 17 23 1005.3 1005.4 0.0
18/12:40pm 16.8 9.2 4.1 43 6.0 NNW 33 46 18 25 1005.5 1005.6 0.0
18/12:30pm 17.4 8.3 3.8 40 6.4 NNW 41 56 22 30 1005.6 1005.7 0.0
18/12:21pm 16.6 8.2 3.5 41 6.1 NNW 37 56 20 30 1005.6 1005.7 0.0
18/12:00pm 16.5 6.5 4.5 45 5.7 N 46 57 25 31 1005.4 1005.5 0.0
18/11:30am 16.0 5.6 4.1 45 5.6 N 48 67 26 36 1005.5 1005.6 0.0
18/11:03am 15.2 3.5 3.5 45 5.4 N 54 72 29 39 1005.7 1005.8 0.0
18/11:00am 15.3 3.3 3.6 45 5.4 N 56 72 30 39 1005.6 1005.7 0.0
18/10:33am 15.9 5.0 3.3 43 5.8 N 50 72 27 39 1006.1 1006.2 0.0
18/10:30am 15.6 5.4 3.2 43 5.7 N 46 63 25 34 1006.1 1006.2 0.0
18/10:00am 15.3 5.7 3.6 45 5.4 N 43 63 23 34 1006.3 1006.4 0.0
18/09:31am 14.8 4.5 2.6 44 5.5 N 46 69 25 37 1006.6 1006.7 0.0
18/09:30am 14.8 4.4 2.3 43 5.6 N 46 59 25 32 1006.6 1006.7 0.0
18/09:11am 14.0 4.1 2.6 46 5.1 N 44 63 24 34 1007.0 1007.1 0.0
18/09:00am 14.0 4.2 2.0 44 5.3 N 43 57 23 31 1007.0 1007.1 0.2
18/08:30am 13.0 3.3 2.6 49 4.6 N 43 61 23 33 1007.6 1007.8 0.2
18/08:22am 12.8 3.0 2.0 48 4.7 N 43 61 23 33 1007.5 1007.7 0.2
18/08:00am 12.1 4.3 3.1 54 4.0 N 33 43 18 23 1008.7 1008.9 0.2
18/07:30am 10.7 3.9 3.2 60 3.3 N 28 33 15 18 1008.3 1008.5 0.2
18/07:00am 10.7 2.6 3.2 60 3.3 N 35 48 19 26 1008.3 1008.5 0.2
18/06:30am 10.9 2.1 3.5 60 3.3 N 39 52 21 28 1008.5 1008.7 0.2
18/06:00am 11.2 1.1 3.6 59 3.4 N 46 59 25 32 1009.3 1009.4 0.2
18/05:30am 10.7 1.0 4.0 63 3.0 N 44 57 24 31 1009.3 1009.4 0.2
18/05:13am 10.0 2.2 4.7 69 2.4 N 35 67 19 36 1009.9 1010.0 0.2
18/05:00am 10.3 2.1 4.5 67 2.6 N 37 43 20 23 1010.0 1010.1 0.2
18/04:30am 10.2 2.0 4.7 68 2.5 N 37 48 20 26 1010.2 1010.3 0.2
18/04:00am 9.3 -0.5 5.4 76 1.8 N 46 54 25 29 1010.9 1011.0 0.2
18/03:30am 9.2 -1.3 5.5 78 1.7 N 50 63 27 34 1010.7 1010.8 0.2
18/03:00am 9.3 -1.2 5.6 78 1.7 N 50 63 27 34 1011.0 1011.1 0.2
18/02:39am 9.4 -1.5 5.7 78 1.7 N 52 70 28 38 1011.3 1011.4 0.2
18/02:30am 9.3 -1.9 5.8 79 1.6 N 54 67 29 36 1011.5 1011.6 0.2
18/02:00am 9.5 -1.6 6.5 81 1.4 N 54 67 29 36 1012.0 1012.1 0.2
18/01:33am 9.6 -0.1 5.9 78 1.7 N 46 65 25 35 1012.3 1012.4 0.2
18/01:30am 9.6 -0.1 5.7 76 1.8 N 46 63 25 34 1012.2 1012.3 0.2
18/01:00am 9.1 -0.1 5.6 79 1.6 N 43 54 23 29 1012.8 1012.9 0.2
18/12:30am 9.2 0.8 5.7 79 1.6 N 39 50 21 27 1013.5 1013.6 0.2
18/12:00am 9.6 -0.1 5.7 76 1.8 N 46 57 25 31 1013.2 1013.3 0.2
 
Date/Time
EST
Temp
°C
App
Temp
°C
Dew
Point
°C
Rel
Hum
%
Delta-T
°C
Wind Press
QNH
hPa
Press
MSL
hPa
Rain since
9am
mm
Dir  Spd
km/h
Gust
km/h
Spd
kts
Gust
kts
17/11:41pm 10.0 0.7 5.7 74 2.0 N 44 65 24 35 1013.6 1013.7 0.2
17/11:30pm 9.9 0.6 5.8 75 1.9 N 44 59 24 32 1013.7 1013.8 0.2
17/11:04pm 10.2 2.6 5.6 73 2.1 N 35 54 19 29 1014.4 1014.5 0.2
17/11:00pm 10.4 2.4 5.6 72 2.2 N 37 48 20 26 1014.5 1014.7 0.2
17/10:30pm 10.2 2.5 5.4 72 2.2 NNE 35 46 19 25 1014.5 1014.7 0.2
17/10:29pm 10.3 2.6 5.3 71 2.3 NNE 35 46 19 25 1014.6 1014.8 0.2
17/10:00pm 9.0 4.6 5.0 76 1.8 N 17 28 9 15 1016.2 1016.4 0.2
17/09:30pm 8.2 4.2 5.1 81 1.4 NNW 15 20 8 11 1016.6 1016.8 0.2
17/09:00pm 9.3 5.0 5.3 76 1.8 N 17 22 9 12 1016.4 1016.6 0.2
17/08:30pm 8.2 5.4 5.1 81 1.4 N 9 11 5 6 1016.5 1016.7 0.2
17/08:00pm 8.5 5.6 4.9 78 1.6 N 9 13 5 7 1016.9 1017.1 0.2
17/07:30pm 9.3 5.7 5.1 75 1.9 N 13 19 7 10 1016.9 1017.1 0.2
17/07:00pm 8.8 4.8 5.0 77 1.7 N 15 19 8 10 1016.7 1016.9 0.2
17/06:30pm 11.9 7.4 4.4 60 3.4 NNE 17 30 9 16 1016.4 1016.6 0.2
17/06:00pm 12.2 8.1 4.5 59 3.5 NE 15 24 8 13 1016.1 1016.3 0.2

Other formats

Comma delimited format used in spreadsheet applications
http://www.bom.gov.au/fwo/IDV60801/IDV60801.94866.axf

JavaScript Object Notation format (JSON) in row-major order
http://www.bom.gov.au/fwo/IDV60801/IDV60801.94866.json

Data quality

Most of these data are generated automatically and are frequently updated. Quality checks on data are not normally performed. It is possible for incorrect values to appear. Refer to information at About Latest Weather Observations and please check the disclaimer before using these data.